Weather 🌤️

Recent data

Temperatures

Wind

Pressure

Humidity & Precipitation

Last data
obsTime qcStatus tempAvg heatindexAvg windspeedAvg windgustAvg winddirAvg pressureAvg humidityAvg precipRate precipTotal
2026-09-05 00:04:50 0 26.3 25.9 0.7 7.8 219 999.83 38 0 0
2026-09-04 23:34:50 0 26.9 26.6 0 7.9 211 1000 37 0 0
2026-09-04 23:29:50 0 27 26.7 0.8 7.9 211 1000 36.5 0 0
2026-09-04 23:24:51 0 27 26.7 0.9 7.9 220 999.83 36 0 0
2026-09-04 23:19:50 0 27.1 26.8 3.9 7.9 224 999.83 36 0 0
2026-09-04 23:14:50 0 27.2 26.8 6.2 7.9 225 999.83 36 0 0
2026-09-04 23:09:51 0 27.3 26.9 4.1 6.1 220 999.83 36 0 0
2026-09-04 23:04:50 0 27.4 27 2.5 6.1 222 999.83 36 0 0
2026-09-04 22:59:51 0 27.5 27 1 6.1 229 999.66 36 0 0
2026-09-04 22:54:53 0 27.6 27.1 2.9 11.7 229 999.83 36 0 0
2026-09-04 22:49:52 0 27.7 27.2 1.8 11.9 224 999.66 35.8 0 0
2026-09-04 22:44:51 0 27.8 27.2 3 11.9 221 999.83 35.2 0 0

Hourly data

Temperatures

Wind

Pressure

Humidity & Precipitation

Last data
obsTime qcStatus tempAvg heatindexAvg windspeedAvg windgustAvg winddirAvg pressureAvg humidityAvg precipRate precipTotal
2026-09-04 23:59:50 0 26.9 26.5 2.4 7.6 223 1000 36.7 0 0
2026-09-04 22:59:51 0 28.2 27.5 2.6 11.4 225 999.49 34.9 0 0
2026-09-04 21:59:51 0 29.2 28.3 3.1 8 223 998.65 33.8 0 0
2026-09-04 20:59:51 1 30.4 29.4 1.7 13.2 226 997.8 32.3 0 0
2026-09-04 19:59:50 1 31.8 30.9 8.4 18.9 231 996.95 31.9 0 0
2026-09-04 18:59:54 1 32.6 32.1 10.7 20.1 236 996.62 33.8 0 0
2026-09-04 17:59:51 1 32.5 32.1 9 20.7 236 996.44 35 0 0
2026-09-04 16:59:51 0 31.1 30.7 6.7 15.3 226 996.62 36.1 0 0
2026-09-04 15:59:50 0 30.8 30.7 2.6 6.8 206 997.46 39.6 0 0
2026-09-04 14:59:51 1 30 29.9 2.6 7.4 200 997.97 41 0 0
2026-09-04 13:59:51 1 28.7 28.6 3.2 6.7 195 998.48 43.6 0 0
2026-09-04 12:59:51 0 27.2 27.3 2.1 6.1 191 999.16 46.7 0 0
2026-09-04 11:59:51 1 25.2 25.1 1.7 4.9 180 999.83 51.5 0 0
2026-09-04 10:59:51 1 22.2 21.9 1.7 6.3 257 1000 56 0 0
2026-09-04 09:59:51 1 20.5 20.5 2.4 5.6 249 1000 57.9 0 0
2026-09-04 08:59:51 1 19.7 19.7 1 3.4 220 1000 58.4 0 0
2026-09-04 07:59:51 0 19.4 19.4 0.2 1.3 215 1000 57.9 0 0
2026-09-04 06:59:51 0 19.7 19.7 0.1 2.6 158 1000 56.6 0 0
2026-09-04 05:59:53 1 20.2 20.2 0.5 2.8 159 1000.34 55.1 0 0
2026-09-04 04:59:52 0 21 20.8 0.1 2 160 1001.02 53.8 0 0
2026-09-04 03:59:50 0 21.6 21.2 0.3 3 164 1001.36 52.4 0 0
2026-09-04 02:59:54 0 22.7 22.4 0.8 5.2 209 1001.69 49.7 0 0
2026-09-04 01:59:53 0 23.4 23.1 2.9 7.7 230 1001.86 48.3 0 0
2026-09-04 00:59:52 0 24.1 23.8 3.4 6.3 226 1002.03 47.6 0 0